Flight Track Log - Related Links

Times and Time Zones

All times are in EST time to prevent confusion due to time zone crossing. See the UAL445 flight status page for this flight to view local times or setup timezone preferences in your user account.

Time Position Orientation Groundspeed Altitude Reporting Facility
EST Latitude Longitude Course Direction KTS MPH feet Rate Location/Type
Thu 07:24:13 AM 39.8667 -75.2833 270° West 160 184 800  Level Philadelphia TRACON
Thu 07:24:55 AM 39.8500 -75.3167 237° Southwest 163 188 1,800 2,056 Climbing Philadelphia TRACON
Thu 07:26:01 AM 39.8333 -75.4000 255° West 248 285 4,500 2,895 Climbing Philadelphia TRACON
Thu 07:26:49 AM 39.8667 -75.4500 311° West 261 300 7,300 3,000 Climbing Philadelphia TRACON
Thu 07:27:00 AM 39.9051 -75.7361 258° West  Level FlightAware Approximate
Thu 07:27:19 AM 39.8969 -75.4708 332° Northwest 284 327 8,400  Level New York Center
Thu 07:28:00 AM 39.9001 -75.8656 270° West  Level FlightAware Approximate
Thu 07:28:19 AM 39.9400 -75.5414 309° West 252 290 9,900  Level New York Center
Thu 07:29:00 AM 39.9000 -75.9958 270° West  Level FlightAware Approximate
Thu 07:29:19 AM 39.9236 -75.6322 257° West 245 282 10,600  Level New York Center
Thu 07:30:19 AM 39.9158 -75.7697 266° West 318 366 12,900 2,200 Climbing New York Center
Thu 07:31:19 AM 39.9144 -75.8997 269° West 352 405 15,000 2,100 Climbing New York Center
Thu 07:32:19 AM 39.9106 -76.0347 268° West 370 426 17,100 1,750 Climbing New York Center
Thu 07:33:19 AM 39.9092 -76.1592 269° West 385 443 18,500 1,550 Climbing New York Center
Thu 07:34:19 AM 39.9125 -76.3083 272° West 396 456 20,200 1,700 Climbing New York Center
Thu 07:35:19 AM 39.9203 -76.4550 274° West 407 468 21,900 1,600 Climbing New York Center
Thu 07:36:19 AM 39.9256 -76.6017 273° West 412 474 23,400 1,500 Climbing New York Center
Thu 07:37:19 AM 39.9306 -76.7539 273° West 412 474 24,900 1,300 Climbing New York Center
Thu 07:38:19 AM 39.9375 -76.9033 274° West 417 480 26,000 1,200 Climbing New York Center
Thu 07:39:19 AM 39.9417 -77.0581 272° West 427 491 27,300 1,150 Climbing New York Center
Thu 07:40:19 AM 39.9461 -77.2103 272° West 427 491 28,300 1,429 Climbing New York Center
Thu 07:42:49 AM 39.9594 -77.5928 273° West 412 474 32,300 1,479 Climbing Cleveland Center
Thu 07:43:50 AM 39.9636 -77.7331 272° West 395 455 33,500 878 Climbing Cleveland Center
Thu 07:44:52 AM 39.9686 -77.8731 273° West 388 447 34,100 732 Climbing Cleveland Center
Thu 07:45:53 AM 39.9725 -78.0178 272° West 395 455 35,000 927 Climbing Cleveland Center
Thu 07:46:55 AM 39.9758 -78.1553 272° West 388 447 36,000 484 Climbing Cleveland Center
Thu 07:47:57 AM 39.9814 -78.3061 273° West 378 435 36,000  Level Cleveland Center
Thu 07:48:58 AM 39.9836 -78.4442 271° West 378 435 36,000  Level Cleveland Center
Thu 07:50:00 AM 39.9861 -78.5931 271° West 380 437 36,000  Level Cleveland Center
Thu 07:51:02 AM 39.9900 -78.7225 272° West 384 442 36,000  Level Cleveland Center
Thu 07:52:03 AM 39.9942 -78.8897 272° West 385 443 36,000  Level Cleveland Center
Thu 07:53:05 AM 39.9967 -79.0047 272° West 386 444 36,000  Level Cleveland Center
Thu 07:54:07 AM 40.0011 -79.1725 272° West 387 445 36,000  Level Cleveland Center
Thu 07:55:09 AM 40.0033 -79.3111 271° West 385 443 36,000  Level Cleveland Center
Thu 07:56:10 AM 40.0047 -79.4489 271° West 384 442 36,000  Level Cleveland Center
Thu 07:57:12 AM 40.0061 -79.5894 271° West 386 444 36,000  Level Cleveland Center
Thu 07:58:14 AM 40.0086 -79.7281 271° West 385 443 36,000  Level Cleveland Center
Thu 07:59:16 AM 40.0100 -79.8681 271° West 385 443 36,000  Level Cleveland Center
Thu 08:00:18 AM 40.0117 -80.0083 271° West 386 444 36,000  Level Cleveland Center
Thu 08:01:20 AM 40.0142 -80.1503 271° West 389 448 36,000  Level Cleveland Center
Thu 08:02:22 AM 40.0144 -80.3186 270° West 386 444 36,000  Level Cleveland Center
Thu 08:03:23 AM 40.0153 -80.4639 270° West 394 453 36,000  Level Cleveland Center
Thu 08:04:25 AM 40.0169 -80.6061 271° West 394 453 36,000  Level Cleveland Center
Thu 08:05:27 AM 40.0178 -80.7489 270° West 391 450 36,000  Level Cleveland Center
Thu 08:06:29 AM 40.0175 -80.8928 270° West 393 452 36,000  Level Cleveland Center
Thu 08:07:03 AM 40.0144 -80.9831 267° West 397 457 36,000  Level Indianapolis Center
Thu 08:08:04 AM 40.0131 -81.1292 269° West 399 459 36,000  Level Indianapolis Center
Thu 08:09:06 AM 40.0106 -81.2747 269° West 397 457 36,000  Level Indianapolis Center
Thu 08:10:07 AM 40.0075 -81.4214 268° West 400 460 36,000  Level Indianapolis Center
Thu 08:11:09 AM 40.0044 -81.5678 268° West 400 460 36,000  Level Indianapolis Center
Thu 08:12:11 AM 40.0011 -81.7133 268° West 399 459 36,000  Level Indianapolis Center
Thu 08:13:12 AM 39.9992 -81.8597 269° West 397 457 36,000  Level Indianapolis Center
Thu 08:14:14 AM 39.9950 -82.0014 268° West 393 452 36,000  Level Indianapolis Center
Thu 08:15:15 AM 39.9914 -82.1431 268° West 392 451 36,000  Level Indianapolis Center
Thu 08:16:17 AM 39.9875 -82.3133 268° West 393 452 36,000  Level Indianapolis Center
Thu 08:17:19 AM 39.9833 -82.4547 268° West 390 449 36,000  Level Indianapolis Center
Thu 08:18:20 AM 39.9794 -82.5961 268° West 394 453 36,000  Level Indianapolis Center
Thu 08:19:22 AM 39.9750 -82.7383 268° West 392 451 36,000  Level Indianapolis Center
Thu 08:20:24 AM 39.9708 -82.8814 268° West 396 456 36,000  Level Indianapolis Center
Thu 08:21:25 AM 39.9667 -83.0258 268° West 399 459 36,000  Level Indianapolis Center
Thu 08:22:27 AM 39.9633 -83.1672 268° West 395 455 36,000  Level Indianapolis Center
Thu 08:23:28 AM 39.9586 -83.3358 268° West 392 451 36,000  Level Indianapolis Center
Thu 08:24:30 AM 39.9533 -83.4758 267° West 396 456 36,000  Level Indianapolis Center
Thu 08:25:32 AM 39.9472 -83.6136 267° West 393 452 36,000  Level Indianapolis Center
Thu 08:26:33 AM 39.9431 -83.7556 268° West 396 456 36,000  Level Indianapolis Center
Thu 08:27:35 AM 39.9378 -83.8983 267° West 397 457 36,000  Level Indianapolis Center
Thu 08:28:37 AM 39.9311 -84.0694 267° West 396 456 36,000  Level Indianapolis Center
Thu 08:29:38 AM 39.9244 -84.2103 267° West 393 452 36,000  Level Indianapolis Center
Thu 08:30:40 AM 39.9192 -84.3522 267° West 394 453 36,000  Level Indianapolis Center
Thu 08:31:41 AM 39.9136 -84.4942 267° West 393 452 36,000  Level Indianapolis Center
Thu 08:32:43 AM 39.9064 -84.6350 266° West 392 451 36,000  Level Indianapolis Center
Thu 08:33:45 AM 39.8994 -84.7772 266° West 394 453 36,000 49 Level Indianapolis Center
Thu 08:34:46 AM 39.8914 -84.9394 266° West 398 458 36,100  Climbing Indianapolis Center
Thu 08:35:48 AM 39.8858 -85.0819 267° West 397 457 36,000 -48 Descending Indianapolis Center
Thu 08:36:50 AM 39.8783 -85.2250 266° West 397 457 36,000  Level Indianapolis Center
Thu 08:37:51 AM 39.8708 -85.3669 266° West 396 456 36,000  Level Indianapolis Center
Thu 08:38:53 AM 39.8631 -85.5081 266° West 395 455 36,000  Level Indianapolis Center
Thu 08:39:55 AM 39.8542 -85.6781 266° West 394 453 36,000  Level Indianapolis Center
Thu 08:40:56 AM 39.8469 -85.8186 266° West 393 452 36,000  Level Indianapolis Center
Thu 08:41:58 AM 39.8392 -85.9594 266° West 393 452 36,000  Level Indianapolis Center
Thu 08:43:00 AM 39.8314 -86.0978 266° West 389 448 36,000  Level Indianapolis Center
Thu 08:44:01 AM 39.8228 -86.2583 266° West 386 444 36,000  Level Indianapolis Center
Thu 08:45:03 AM 39.8150 -86.3936 266° West 384 442 36,000  Level Indianapolis Center
Thu 08:46:05 AM 39.8078 -86.5300 266° West 385 443 36,000  Level Indianapolis Center
Thu 08:47:06 AM 39.7989 -86.6697 265° West 390 449 36,000 49 Level Indianapolis Center
Thu 08:48:08 AM 39.7897 -86.8094 265° West 391 450 36,100  Climbing Indianapolis Center
Thu 08:49:10 AM 39.7814 -86.9489 266° West 390 449 36,000 -48 Descending Indianapolis Center
Thu 08:50:12 AM 39.7911 -87.1158 274° West 389 448 36,000  Level Indianapolis Center
Thu 08:51:13 AM 39.7997 -87.2544 275° West 387 445 36,000  Level Indianapolis Center
Thu 08:52:15 AM 39.8078 -87.3950 274° West 389 448 36,000  Level Indianapolis Center
Thu 08:53:17 AM 39.8153 -87.5336 274° West 388 447 36,000  Level Indianapolis Center
Thu 08:54:19 AM 39.8239 -87.6717 275° West 386 444 36,000  Level Indianapolis Center
Thu 08:55:20 AM 39.8308 -87.8097 274° West 385 443 36,000  Level Indianapolis Center
Thu 08:56:22 AM 39.8408 -87.9714 275° West 378 435 36,000  Level Indianapolis Center
Thu 08:57:24 AM 39.8475 -88.1067 274° West 376 433 36,000  Level Indianapolis Center
Thu 08:58:26 AM 39.8547 -88.2383 274° West 371 427 36,000  Level Indianapolis Center
Thu 08:59:28 AM 39.8614 -88.3694 274° West 368 423 36,000  Level Indianapolis Center
Thu 09:00:30 AM 39.8667 -88.4961 273° West 357 411 36,000  Level Indianapolis Center
Thu 09:01:31 AM 39.8725 -88.6208 274° West 349 402 36,000  Level Indianapolis Center
Thu 09:02:33 AM 39.8806 -88.7686 274° West 344 396 36,000  Level Indianapolis Center
Thu 09:03:35 AM 39.8869 -88.8917 274° West 343 395 36,000  Level Indianapolis Center
Thu 09:04:37 AM 39.8928 -89.0161 274° West 345 397 36,000  Level Indianapolis Center
Thu 09:05:39 AM 39.8989 -89.1414 274° West 348 400 36,000  Level Indianapolis Center
Thu 09:06:41 AM 39.9042 -89.2678 273° West 349 402 36,000  Level Indianapolis Center
Thu 09:07:43 AM 39.9094 -89.3947 273° West 351 404 36,000  Level Indianapolis Center
Thu 09:08:59 AM 39.9161 -89.5536 273° West 348 400 36,000  Level Kansas City Center
Thu 09:10:01 AM 39.9206 -89.6778 273° West 344 396 36,000  Level Kansas City Center
Thu 09:11:00 AM 39.9253 -89.8011 273° West 341 392 36,000  Level Kansas City Center
Thu 09:12:01 AM 39.9294 -89.9236 273° West 340 391 36,000  Level Kansas City Center
Thu 09:13:05 AM 39.9350 -90.0483 273° West 341 392 36,000  Level Kansas City Center
Thu 09:14:04 AM 39.9403 -90.1994 273° West 345 397 36,000  Level Kansas City Center
Thu 09:15:08 AM 39.9456 -90.3267 273° West 348 400 36,000  Level Kansas City Center
Thu 09:16:08 AM 39.9492 -90.4528 272° West 349 402 36,000  Level Kansas City Center
Thu 09:17:08 AM 39.9533 -90.5789 273° West 348 400 36,000  Level Kansas City Center
Thu 09:18:10 AM 39.9578 -90.7072 273° West 351 404 36,000  Level Kansas City Center
Thu 09:19:13 AM 39.9611 -90.8333 272° West 350 403 36,000  Level Kansas City Center
Thu 09:20:14 AM 39.9650 -90.9697 272° West 347 399 36,000 393 Level Kansas City Center
Thu 09:21:15 AM 39.9681 -91.0953 272° West 348 400 36,800 581 Climbing Kansas City Center
Thu 09:22:18 AM 39.9728 -91.2186 273° West 344 396 37,200 484 Climbing Kansas City Center
Thu 09:23:19 AM 39.9750 -91.3436 271° West 346 398 37,800 390 Climbing Kansas City Center
Thu 09:24:21 AM 39.9789 -91.4697 272° West 349 402 38,000 98 Climbing Kansas City Center
Thu 09:25:22 AM 39.9819 -91.5997 272° West 356 410 38,000  Level Kansas City Center
Thu 09:26:22 AM 39.9856 -91.7550 272° West 359 413 38,000  Level Kansas City Center
Thu 09:27:26 AM 39.9881 -91.8819 272° West 356 410 38,000  Level Kansas City Center
Thu 09:28:28 AM 39.9917 -92.0083 272° West 352 405 38,000  Level Kansas City Center
Thu 09:29:30 AM 39.9933 -92.1364 271° West 353 406 38,000  Level Kansas City Center
Thu 09:30:31 AM 39.9964 -92.2639 272° West 353 406 38,000  Level Kansas City Center
Thu 09:31:32 AM 39.9978 -92.3919 271° West 353 406 38,000  Level Kansas City Center
Thu 09:32:34 AM 39.9997 -92.5200 271° West 353 406 38,000  Level Kansas City Center
Thu 09:33:34 AM 40.0019 -92.6744 271° West 354 407 38,000  Level Kansas City Center
Thu 09:34:35 AM 40.0044 -92.8050 271° West 357 411 38,000  Level Kansas City Center
Thu 09:35:39 AM 40.0050 -92.9342 270° West 357 411 38,000  Level Kansas City Center
Thu 09:36:40 AM 40.0056 -93.0636 270° West 358 412 38,000  Level Kansas City Center
Thu 09:37:42 AM 40.0064 -93.1917 271° West 356 410 38,000  Level Kansas City Center
Thu 09:38:44 AM 40.0064 -93.3183 270° West 351 404 38,000  Level Kansas City Center
Thu 09:39:45 AM 40.0097 -93.4483 272° West 356 410 38,000  Level Kansas City Center
Thu 09:40:48 AM 40.0094 -93.5744 270° West 353 406 38,000  Level Kansas City Center
Thu 09:41:49 AM 40.0111 -93.7258 271° West 351 404 38,000  Level Kansas City Center
Thu 09:42:49 AM 40.0111 -93.8522 270° West 351 404 38,000  Level Kansas City Center
Thu 09:43:53 AM 40.0122 -93.9792 271° West 351 404 38,000  Level Kansas City Center
Thu 09:44:55 AM 40.0122 -94.1233 270° West 350 403 38,000  Level Kansas City Center
Thu 09:45:55 AM 40.0122 -94.2461 270° West 353 406 38,000  Level Kansas City Center
Thu 09:46:58 AM 40.0117 -94.3689 270° West 355 409 38,000  Level Kansas City Center
Thu 09:47:58 AM 40.0122 -94.5147 270° West 360 414 38,000  Level Kansas City Center
Thu 09:49:02 AM 40.0125 -94.6392 270° West 361 415 38,000  Level Kansas City Center
Thu 09:50:02 AM 40.0114 -94.7833 269° West 358 412 38,000  Level Kansas City Center
Thu 09:51:04 AM 40.0108 -94.9072 270° West 358 412 38,000  Level Kansas City Center
Thu 09:52:08 AM 40.0097 -95.0508 269° West 357 411 38,000  Level Kansas City Center
Thu 09:53:08 AM 40.0097 -95.1750 270° West 358 412 38,000  Level Kansas City Center
Thu 09:54:09 AM 40.0083 -95.3206 269° West 361 415 38,000  Level Kansas City Center
Thu 09:55:13 AM 40.0072 -95.4450 269° West 359 413 38,000  Level Kansas City Center
Thu 09:56:15 AM 40.0058 -95.5889 269° West 358 412 38,000  Level Kansas City Center
Thu 09:57:15 AM 40.0044 -95.7103 269° West 355 409 38,000  Level Kansas City Center
Thu 09:58:16 AM 40.0022 -95.8303 269° West 350 403 38,000  Level Kansas City Center
Thu 09:59:20 AM 40.0006 -95.9658 269° West 337 388 38,000  Level Kansas City Center
Thu 10:00:20 AM 39.9986 -96.0806 269° West 331 381 38,000  Level Kansas City Center
Thu 10:01:24 AM 39.9961 -96.2139 269° West 331 381 38,000  Level Kansas City Center
Thu 10:02:25 AM 39.9936 -96.3358 269° West 334 384 38,000  Level Kansas City Center
Thu 10:03:20 AM 39.9922 -96.4556 269° West 340 391 38,000  Level Minneapolis Center
Thu 10:04:22 AM 39.9897 -96.5847 269° West 348 400 38,000 49 Level Minneapolis Center
Thu 10:05:23 AM 39.9878 -96.7144 269° West 352 405 38,100  Climbing Minneapolis Center
Thu 10:06:24 AM 39.9839 -96.8439 268° West 354 407 38,000 -49 Descending Minneapolis Center
Thu 10:07:26 AM 39.9822 -96.9711 269° West 354 407 38,000  Level Minneapolis Center
Thu 10:08:27 AM 39.9789 -97.0972 268° West 352 405 38,000  Level Minneapolis Center
Thu 10:09:28 AM 39.9756 -97.2214 268° West 348 400 38,000  Level Minneapolis Center
Thu 10:10:29 AM 39.9731 -97.3517 269° West 347 399 38,000  Level Minneapolis Center
Thu 10:11:31 AM 39.9694 -97.4806 268° West 349 402 38,000 49 Level Minneapolis Center
Thu 10:12:32 AM 39.9647 -97.6322 268° West 349 402 38,100  Climbing Minneapolis Center
Thu 10:13:33 AM 39.9617 -97.7594 268° West 349 402 38,000 -49 Descending Minneapolis Center
Thu 10:14:34 AM 39.9572 -97.8825 267° West 346 398 38,000  Level Minneapolis Center
Thu 10:15:35 AM 39.9533 -98.0053 268° West 344 396 38,000  Level Minneapolis Center
Thu 10:16:37 AM 39.9500 -98.1256 268° West 336 387 38,000  Level Minneapolis Center
Thu 10:17:38 AM 39.9456 -98.2453 267° West 335 386 38,000  Level Minneapolis Center
Thu 10:18:39 AM 39.9414 -98.3633 267° West 330 380 38,000  Level Minneapolis Center
Thu 10:19:40 AM 39.9364 -98.4839 267° West 330 380 38,000  Level Minneapolis Center
Thu 10:20:42 AM 39.9325 -98.6033 268° West 330 380 38,000  Level Minneapolis Center
Thu 10:21:43 AM 39.9283 -98.7217 267° West 330 380 38,000 49 Level Minneapolis Center
Thu 10:22:44 AM 39.9242 -98.8425 267° West 330 380 38,100 49 Climbing Minneapolis Center
Thu 10:23:46 AM 39.9194 -98.9617 267° West 330 380 38,100 -49 Level Minneapolis Center
Thu 10:24:47 AM 39.9147 -99.0797 267° West 329 379 38,000 -49 Descending Minneapolis Center
Thu 10:25:48 AM 39.9089 -99.2178 267° West 324 373 38,000  Level Minneapolis Center
Thu 10:26:49 AM 39.9042 -99.3311 267° West 319 367 38,000  Level Minneapolis Center
Thu 10:27:51 AM 39.8989 -99.4442 267° West 316 364 38,000  Level Minneapolis Center
Thu 10:28:52 AM 39.8939 -99.5589 267° West 316 364 38,000  Level Minneapolis Center
Thu 10:29:53 AM 39.8886 -99.6747 267° West 316 364 38,000  Level Minneapolis Center
Thu 10:30:54 AM 39.8831 -99.7900 266° West 317 365 38,000  Level Minneapolis Center
Thu 10:31:56 AM 39.8772 -99.9061 266° West 317 365 38,000  Level Minneapolis Center
Thu 10:32:57 AM 39.8725 -100.0217 267° West 317 365 38,000  Level Minneapolis Center
Thu 10:33:58 AM 39.8667 -100.1356 266° West 317 365 38,000  Level Minneapolis Center
Thu 10:35:00 AM 39.8606 -100.2511 266° West 317 365 38,000  Level Minneapolis Center
Thu 10:36:01 AM 39.8544 -100.3664 266° West 317 365 38,000  Level Minneapolis Center
Thu 10:37:32 AM 39.8447 -100.5483 266° West 321 369 38,000  Level Denver Center
Thu 10:38:34 AM 39.8367 -100.6794 265° West 323 372 38,000  Level Denver Center
Thu 10:39:35 AM 39.8311 -100.7911 266° West 323 372 38,000  Level Denver Center
Thu 10:40:37 AM 39.8247 -100.9014 266° West 320 368 38,000  Level Denver Center
Thu 10:41:39 AM 39.8167 -101.0331 265° West 326 375 38,000  Level Denver Center
Thu 10:42:41 AM 39.8103 -101.1453 266° West 326 375 38,000  Level Denver Center
Thu 10:43:42 AM 39.8022 -101.2736 265° West 321 369 38,000  Level Denver Center
Thu 10:44:44 AM 39.7958 -101.3867 266° West 326 375 38,000  Level Denver Center
Thu 10:45:46 AM 39.7872 -101.5161 265° West 323 372 38,000  Level Denver Center
Thu 10:46:48 AM 39.7811 -101.6278 266° West 322 371 38,000  Level Denver Center
Thu 10:47:50 AM 39.7736 -101.7389 265° West 323 372 38,000  Level Denver Center
Thu 10:48:52 AM 39.7650 -101.8675 265° West 320 368 38,000  Level Denver Center
Thu 10:49:53 AM 39.7586 -101.9769 266° West 318 366 38,000  Level Denver Center
Thu 10:50:55 AM 39.7492 -102.1050 265° West 319 367 38,000  Level Denver Center
Thu 10:51:57 AM 39.7419 -102.2156 265° West 320 368 38,000  Level Denver Center
Thu 10:53:11 AM 39.7325 -102.3458 265° West 323 372 38,000  Level Denver Center
Thu 10:54:13 AM 39.7242 -102.4764 265° West 325 374 38,000  Level Denver Center
Thu 10:55:15 AM 39.7150 -102.6044 265° West 322 371 38,000  Level Denver Center
Thu 10:56:29 AM 39.7061 -102.7297 265° West 322 371 38,000  Level Denver Center
Thu 10:57:31 AM 39.6950 -102.8683 264° West 321 369 38,000  Level Denver Center
Thu 10:58:33 AM 39.6858 -102.9828 264° West 322 371 38,000  Level Denver Center
Thu 10:59:35 AM 39.6772 -103.0983 265° West 322 371 38,000  Level Denver Center
Thu 11:00:37 AM 39.6692 -103.2131 265° West 320 368 38,000  Level Denver Center
Thu 11:01:39 AM 39.6608 -103.3289 265° West 322 371 38,000  Level Denver Center
Thu 11:02:40 AM 39.6514 -103.4431 264° West 321 369 38,000  Level Denver Center
Thu 11:03:42 AM 39.6406 -103.5806 264° West 320 368 38,000  Level Denver Center
Thu 11:04:44 AM 39.6303 -103.6978 264° West 325 374 38,000  Level Denver Center
Thu 11:05:58 AM 39.6214 -103.8133 264° West 325 374 38,000  Level Denver Center
Thu 11:07:00 AM 39.6100 -103.9508 264° West 321 369 38,000  Level Denver Center
Thu 11:08:02 AM 39.5997 -104.0653 263° West 320 368 38,000  Level Denver Center
Thu 11:09:04 AM 39.5903 -104.1806 264° West 322 371 38,000  Level Denver Center
Thu 11:10:06 AM 39.5786 -104.3175 264° West 321 369 38,000  Level Denver Center
Thu 11:11:08 AM 39.5711 -104.4086 264° West 318 366 38,000  Level Denver Center
Thu 11:12:10 AM 39.5592 -104.5456 264° West 319 367 38,000  Level Denver Center
Thu 11:13:12 AM 39.5481 -104.6628 263° West 322 371 38,000  Level Denver Center
Thu 11:14:13 AM 39.5400 -104.7603 264° West 323 372 38,000  Level Denver Center
Thu 11:15:16 AM 39.5269 -104.8997 263° West 323 372 38,000  Level Denver Center
Thu 11:16:18 AM 39.5164 -105.0147 263° West 321 369 38,000  Level Denver Center
Thu 11:17:20 AM 39.5058 -105.1311 263° West 325 374 38,000  Level Denver Center
Thu 11:18:21 AM 39.4944 -105.2481 263° West 326 375 38,000  Level Denver Center
Thu 11:19:23 AM 39.4808 -105.3878 263° West 326 375 38,000  Level Denver Center
Thu 11:20:25 AM 39.4706 -105.5039 263° West 327 376 38,000  Level Denver Center
Thu 11:21:27 AM 39.4578 -105.6189 262° West 325 374 38,000  Level Denver Center
Thu 11:22:29 AM 39.4497 -105.7111 264° West 323 372 38,000  Level Denver Center
Thu 11:23:31 AM 39.4358 -105.8486 263° West 321 369 38,000  Level Denver Center
Thu 11:24:33 AM 39.4258 -105.9617 264° West 318 366 38,000  Level Denver Center
Thu 11:25:35 AM 39.4103 -106.0975 262° West 319 367 38,000  Level Denver Center
Thu 11:26:37 AM 39.4003 -106.2086 263° West 317 365 38,000  Level Denver Center
Thu 11:27:39 AM 39.3883 -106.3156 262° West 314 361 38,000  Level Denver Center
Thu 11:28:41 AM 39.3753 -106.4411 262° West 316 364 38,000  Level Denver Center
Thu 11:29:43 AM 39.3636 -106.5500 262° West 318 366 38,000  Level Denver Center
Thu 11:30:46 AM 39.3494 -106.6761 262° West 317 365 38,000  Level Denver Center
Thu 11:31:48 AM 39.3375 -106.7844 262° West 319 367 38,000  Level Denver Center
Thu 11:32:50 AM 39.3225 -106.9136 262° West 325 374 38,000  Level Denver Center
Thu 11:33:51 AM 39.3136 -107.0058 263° West 325 374 38,000  Level Denver Center
Thu 11:34:54 AM 39.2978 -107.1514 262° West 321 369 38,000  Level Denver Center
Thu 11:35:56 AM 39.2847 -107.2608 261° West 322 371 38,000  Level Denver Center
Thu 11:36:58 AM 39.2697 -107.3886 261° West 322 371 38,000  Level Denver Center
Thu 11:38:00 AM 39.2569 -107.4969 261° West 320 368 38,000  Level Denver Center
Thu 11:39:01 AM 39.2453 -107.6069 262° West 322 371 38,000  Level Denver Center
Thu 11:40:03 AM 39.2297 -107.7353 261° West 323 372 38,000  Level Denver Center
Thu 11:41:05 AM 39.2175 -107.8453 262° West 324 373 38,000  Level Denver Center
Thu 11:42:07 AM 39.2025 -107.9744 262° West 324 373 38,000  Level Denver Center
Thu 11:43:21 AM 39.1892 -108.0847 261° West 326 375 38,000  Level Denver Center
Thu 11:44:24 AM 39.1719 -108.2308 261° West 323 372 38,000  Level Denver Center
Thu 11:45:26 AM 39.1583 -108.3417 261° West 325 374 38,000  Level Denver Center
Thu 11:46:28 AM 39.1422 -108.4694 261° West 325 374 38,000  Level Denver Center
Thu 11:47:41 AM 39.1283 -108.5789 261° West 323 372 38,000  Level Denver Center
Thu 11:48:44 AM 39.1097 -108.7283 261° West 328 377 38,000  Level Denver Center
Thu 11:49:46 AM 39.0956 -108.8392 261° West 329 379 38,000  Level Denver Center
Thu 11:50:48 AM 39.0789 -108.9689 261° West 327 376 38,000  Level Denver Center
Thu 11:51:50 AM 39.0650 -109.0800 261° West 327 376 38,000  Level Denver Center
Thu 11:53:04 AM 39.0478 -109.2083 260° West 325 374 38,000  Level Denver Center
Thu 11:54:18 AM 39.0306 -109.3372 260° West 326 375 38,000  Level Denver Center
Thu 11:55:20 AM 39.0125 -109.4850 261° West 328 377 38,000  Level Denver Center
Thu 11:56:22 AM 39.0000 -109.5775 260° West 329 379 38,000  Level Denver Center
Thu 11:57:24 AM 38.9814 -109.7272 261° West 331 381 38,000  Level Denver Center
Thu 11:58:26 AM 38.9639 -109.8564 260° West 330 380 38,000  Level Denver Center
Thu 11:58:57 AM 38.9561 -109.9111 260° West 329 379 38,000  Level Salt Lake Center
Thu 11:59:59 AM 38.9403 -110.0208 260° West 327 376 38,000  Level Salt Lake Center
Thu 12:01:01 PM 38.9239 -110.1497 261° West 328 377 38,000  Level Salt Lake Center
Thu 12:02:03 PM 38.9081 -110.2600 260° West 328 377 38,000  Level Salt Lake Center
Thu 12:03:05 PM 38.8894 -110.3883 259° West 328 377 38,000  Level Salt Lake Center
Thu 12:04:06 PM 38.8744 -110.4989 260° West 327 376 38,000  Level Salt Lake Center
Thu 12:04:38 PM 38.8664 -110.5528 259° West 328 377 38,000  Level Denver Center
Thu 12:05:40 PM 38.8475 -110.6803 259° West 327 376 38,000  Level Denver Center
Thu 12:06:10 PM 38.8403 -110.7358 261° West 327 376 38,000  Level Salt Lake Center
Thu 12:07:12 PM 38.8239 -110.8447 259° West 325 374 38,000  Level Salt Lake Center
Thu 12:08:14 PM 38.8081 -110.9575 260° West 324 373 38,000  Level Salt Lake Center
Thu 12:09:16 PM 38.7919 -111.0711 260° West 325 374 38,000  Level Salt Lake Center
Thu 12:10:17 PM 38.7719 -111.2067 259° West 324 373 38,000  Level Salt Lake Center
Thu 12:11:19 PM 38.7544 -111.3192 259° West 324 373 38,000  Level Salt Lake Center
Thu 12:12:21 PM 38.7378 -111.4317 259° West 323 372 38,000  Level Salt Lake Center
Thu 12:13:23 PM 38.7217 -111.5447 260° West 324 373 38,000  Level Salt Lake Center
Thu 12:14:25 PM 38.7039 -111.6561 258° West 322 371 38,000  Level Salt Lake Center
Thu 12:15:26 PM 38.6867 -111.7683 259° West 322 371 38,000  Level Salt Lake Center
Thu 12:16:28 PM 38.6664 -111.9003 259° West 316 364 38,000  Level Salt Lake Center
Thu 12:17:30 PM 38.6489 -112.0108 259° West 318 366 38,000  Level Salt Lake Center
Thu 12:18:32 PM 38.6322 -112.1217 259° West 319 367 38,000  Level Salt Lake Center
Thu 12:19:34 PM 38.6144 -112.2314 258° West 317 365 38,000  Level Salt Lake Center
Thu 12:20:36 PM 38.5967 -112.3414 258° West 318 366 38,000  Level Salt Lake Center
Thu 12:21:37 PM 38.5794 -112.4514 259° West 318 366 38,000  Level Salt Lake Center
Thu 12:22:39 PM 38.5583 -112.5819 258° West 316 364 38,000  Level Salt Lake Center
Thu 12:23:41 PM 38.5414 -112.6906 259° West 315 362 38,000  Level Salt Lake Center
Thu 12:24:43 PM 38.5228 -112.7986 258° West 313 360 38,000  Level Salt Lake Center
Thu 12:25:44 PM 38.5053 -112.9058 258° West 311 358 38,000  Level Salt Lake Center
Thu 12:26:46 PM 38.4867 -113.0164 258° West 316 364 38,000  Level Salt Lake Center
Thu 12:27:48 PM 38.4683 -113.1300 258° West 323 372 38,000  Level Salt Lake Center
Thu 12:28:50 PM 38.4508 -113.2392 258° West 317 365 38,000  Level Salt Lake Center
Thu 12:29:51 PM 38.4278 -113.3697 257° West 315 362 38,000  Level Salt Lake Center
Thu 12:30:53 PM 38.4089 -113.4778 257° West 315 362 38,000  Level Salt Lake Center
Thu 12:31:54 PM 38.3911 -113.5864 258° West 314 361 38,000  Level Salt Lake Center
Thu 12:32:56 PM 38.3728 -113.6944 258° West 314 361 38,000  Level Salt Lake Center
Thu 12:33:58 PM 38.3542 -113.8025 258° West 314 361 38,000  Level Salt Lake Center
Thu 12:34:59 PM 38.3358 -113.9125 258° West 317 365 38,000  Level Salt Lake Center
Thu 12:36:01 PM 38.3122 -114.0453 257° West 320 368 38,000  Level Salt Lake Center
Thu 12:37:03 PM 38.2914 -114.1594 257° West 328 377 38,000  Level Salt Lake Center
Thu 12:38:04 PM 38.2717 -114.2736 258° West 332 382 38,000  Level Salt Lake Center
Thu 12:39:06 PM 38.2517 -114.3889 258° West 333 383 38,000  Level Salt Lake Center
Thu 12:40:07 PM 38.2464 -114.5064 267° West 334 384 38,000  Level Salt Lake Center
Thu 12:41:09 PM 38.2422 -114.6267 268° West 340 391 38,000  Level Salt Lake Center
Thu 12:42:11 PM 38.2378 -114.7483 267° West 346 398 38,000  Level Salt Lake Center
Thu 12:43:12 PM 38.2328 -114.8928 268° West 343 395 38,000  Level Salt Lake Center
Thu 12:44:14 PM 38.2286 -115.0150 268° West 344 396 38,000  Level Salt Lake Center
Thu 12:45:15 PM 38.2231 -115.1361 267° West 346 398 38,000  Level Salt Lake Center
Thu 12:46:17 PM 38.2186 -115.2594 267° West 348 400 38,000  Level Salt Lake Center
Thu 12:47:19 PM 38.2131 -115.3850 267° West 351 404 38,000  Level Salt Lake Center
Thu 12:48:20 PM 38.2069 -115.5092 266° West 351 404 38,000  Level Salt Lake Center
Thu 12:49:22 PM 38.2011 -115.6350 267° West 354 407 38,000  Level Salt Lake Center
Thu 12:50:23 PM 38.1964 -115.7619 267° West 359 413 38,000  Level Salt Lake Center
Thu 12:51:25 PM 38.1894 -115.9133 267° West 358 412 38,000  Level Salt Lake Center
Thu 12:52:27 PM 38.1833 -116.0383 266° West 355 409 38,000  Level Salt Lake Center
Thu 12:53:28 PM 38.1775 -116.1633 267° West 355 409 38,000  Level Salt Lake Center
Thu 12:54:30 PM 38.1708 -116.2889 266° West 355 409 38,000  Level Salt Lake Center
Thu 12:55:31 PM 38.1656 -116.4139 267° West 355 409 38,000  Level Salt Lake Center
Thu 12:56:33 PM 38.1589 -116.5403 266° West 358 412 38,000  Level Salt Lake Center
Thu 12:57:34 PM 38.1519 -116.6686 266° West 364 419 38,000  Level Salt Lake Center
Thu 12:58:36 PM 38.1453 -116.7983 266° West 368 423 38,000 49 Level Salt Lake Center
Thu 12:59:37 PM 38.1383 -116.9281 266° West 368 423 38,100  Climbing Salt Lake Center
Thu 01:00:39 PM 38.1306 -117.0806 266° West 360 414 38,000 -49 Descending Salt Lake Center
Thu 01:01:40 PM 38.1244 -117.1942 266° West 360 414 38,000  Level Salt Lake Center
Thu 01:02:42 PM 38.1086 -117.3175 261° West 363 418 38,000  Level Salt Lake Center
Thu 01:03:44 PM 38.0811 -117.4361 254° West 352 405 38,000  Level Salt Lake Center
Thu 01:04:45 PM 38.0481 -117.5803 254° West 354 407 38,000  Level Salt Lake Center
Thu 01:05:58 PM 38.0136 -117.7239 253° West 352 405 38,000  Level Oakland Center
Thu 01:06:59 PM 37.9942 -117.8469 259° West 355 409 38,000  Level Oakland Center
Thu 01:08:01 PM 37.9828 -117.9706 263° West 355 409 38,000  Level Oakland Center
Thu 01:09:02 PM 37.9700 -118.0928 262° West 350 403 38,000  Level Oakland Center
Thu 01:10:03 PM 37.9572 -118.2131 262° West 347 399 38,000  Level Oakland Center
Thu 01:11:04 PM 37.9436 -118.3317 262° West 342 394 38,000  Level Oakland Center
Thu 01:12:06 PM 37.9297 -118.4525 262° West 345 397 38,000  Level Oakland Center
Thu 01:13:07 PM 37.9183 -118.5733 263° West 345 397 38,000  Level Oakland Center
Thu 01:14:08 PM 37.9036 -118.6931 261° West 344 396 38,000  Level Oakland Center
Thu 01:15:10 PM 37.8906 -118.8114 262° West 341 392 38,000  Level Oakland Center
Thu 01:16:11 PM 37.8742 -118.9539 262° West 341 392 38,000  Level Oakland Center
Thu 01:17:12 PM 37.8619 -119.0603 262° West 344 396 38,000  Level Oakland Center
Thu 01:18:14 PM 37.8483 -119.1794 262° West 342 394 38,000  Level Oakland Center
Thu 01:19:15 PM 37.8333 -119.2997 261° West 346 398 38,000  Level Oakland Center
Thu 01:20:16 PM 37.8192 -119.4197 262° West 346 398 38,000 -49 Level Oakland Center
Thu 01:21:17 PM 37.8031 -119.5642 262° West 345 397 37,900  Descending Oakland Center
Thu 01:22:19 PM 37.7883 -119.6872 261° West 353 406 38,000 98 Climbing Oakland Center
Thu 01:23:20 PM 37.7736 -119.8117 262° West 357 411 38,100 -197 Climbing Oakland Center
Thu 01:24:21 PM 37.7572 -119.9353 261° West 358 412 37,600 -732 Descending Oakland Center
Thu 01:25:23 PM 37.7422 -120.0578 261° West 353 406 36,600 -976 Descending Oakland Center
Thu 01:26:24 PM 37.7281 -120.1842 262° West 361 415 35,600 -984 Descending Oakland Center
Thu 01:27:25 PM 37.7108 -120.3106 260° West 362 417 34,600 -984 Descending Oakland Center
Thu 01:28:26 PM 37.6950 -120.4347 261° West 360 414 33,600 -976 Descending Oakland Center
Thu 01:29:28 PM 37.6803 -120.5589 262° West 359 413 32,600 -976 Descending Oakland Center
Thu 01:30:29 PM 37.6631 -120.6850 260° West 361 415 31,600 -1,230 Descending Oakland Center
Thu 01:31:30 PM 37.6472 -120.8058 261° West 357 411 30,100 -1,967 Descending Oakland Center
Thu 01:32:31 PM 37.6281 -120.9558 261° West 356 410 27,600 -2,585 Descending Oakland Center
Thu 01:33:33 PM 37.6131 -121.0814 261° West 359 413 24,800 -2,976 Descending Oakland Center
Thu 01:34:34 PM 37.6000 -121.2003 262° West 353 406 21,500 -3,049 Descending Oakland Center
Thu 01:35:35 PM 37.5867 -121.3142 262° West 338 389 18,600 -3,194 Descending Oakland Center
Thu 01:36:38 PM 37.5667 -121.4333 258° West 334 384 14,900 -3,395 Descending Northern Cal TRACON
Thu 01:37:44 PM 37.5500 -121.5667 261° West 340 391 11,300 -1,857 Descending Northern Cal TRACON
Thu 01:38:44 PM 37.5333 -121.6833 260° West 331 381 11,000 -600 Descending Northern Cal TRACON
Thu 01:39:44 PM 37.5167 -121.7667 256° West 276 318 10,100 -1,526 Descending Northern Cal TRACON
Thu 01:40:38 PM 37.5000 -121.8500 256° West 274 315 8,100 -1,050 Descending Northern Cal TRACON
Thu 01:41:44 PM 37.5000 -121.9500 270° West 240 276 8,000 -857 Descending Northern Cal TRACON
Thu 01:42:44 PM 37.5000 -122.0333 270° West 226 260 6,300 -1,357 Descending Northern Cal TRACON
Thu 01:43:39 PM 37.5333 -122.0833 310° West 201 231 5,400 -1,357 Descending Northern Cal TRACON
Thu 01:44:39 PM 37.5500 -122.1500 288° West 173 199 3,700 -1,550 Descending Northern Cal TRACON
Thu 01:45:39 PM 37.5667 -122.2000 293° West 160 184 2,300 -1,150 Descending Northern Cal TRACON
Thu 01:46:39 PM 37.5833 -122.2500 293° West 159 183 1,400 -600 Descending Northern Cal TRACON
Thu 01:47:39 PM 37.5833 -122.3000 270° West 130 150 1,100 -500 Descending Northern Cal TRACON
Thu 01:48:39 PM 37.6000 -122.3333 302° West 131 151 400 -448 Descending Northern Cal TRACON
Thu 01:49:53 PM 37.6233 -122.3844 300° West 137 158 100 -243 Descending Oakland Center

Login

Don't have an account? Register now (free) for customized features, flight alerts, and more!